createdAt,value
2023-12-21T00:00:49.116Z,48.90
2023-12-21T00:03:15.785Z,49.00
2023-12-21T00:05:42.480Z,49.00
2023-12-21T00:08:09.216Z,49.00
2023-12-21T00:10:36.025Z,48.90
2023-12-21T00:13:02.824Z,49.00
2023-12-21T00:15:29.519Z,49.10
2023-12-21T00:17:56.252Z,49.00
2023-12-21T00:20:23.096Z,49.10
2023-12-21T00:22:49.800Z,49.00
2023-12-21T00:25:16.577Z,49.00
2023-12-21T00:27:43.291Z,49.10
2023-12-21T00:30:10.227Z,49.00
2023-12-21T00:32:37.252Z,49.10
2023-12-21T00:35:04.016Z,49.00
2023-12-21T00:37:30.751Z,48.90
2023-12-21T00:39:57.552Z,49.10
2023-12-21T00:42:24.457Z,49.10
2023-12-21T00:44:51.162Z,49.00
2023-12-21T00:47:17.847Z,49.10
2023-12-21T00:49:44.638Z,49.10
2023-12-21T00:52:11.412Z,49.10
2023-12-21T00:54:38.136Z,49.00
2023-12-21T00:57:05.399Z,49.10
2023-12-21T00:59:32.760Z,49.00
2023-12-21T01:01:59.779Z,49.00
2023-12-21T01:04:26.594Z,49.10
2023-12-21T01:06:53.263Z,49.00
2023-12-21T01:09:19.939Z,49.10
2023-12-21T01:11:46.637Z,49.10
2023-12-21T01:14:13.343Z,49.00
2023-12-21T01:16:40.073Z,49.10
2023-12-21T01:19:07.206Z,49.20
2023-12-21T01:21:33.966Z,49.20
2023-12-21T01:24:00.652Z,49.10
2023-12-21T01:26:27.342Z,49.30
2023-12-21T01:28:54.037Z,49.20
2023-12-21T01:31:20.781Z,49.20
2023-12-21T01:33:47.568Z,49.10
2023-12-21T01:36:14.301Z,49.20
2023-12-21T01:38:41.034Z,49.10
2023-12-21T01:41:07.699Z,49.20
2023-12-21T01:43:34.472Z,49.10
2023-12-21T01:46:01.265Z,49.30
2023-12-21T01:48:28.028Z,49.30
2023-12-21T01:50:54.773Z,49.10
2023-12-21T01:53:21.473Z,49.20
2023-12-21T01:55:48.278Z,49.10
2023-12-21T01:58:15.000Z,49.10
2023-12-21T02:00:41.770Z,49.10
2023-12-21T02:03:08.572Z,49.00
2023-12-21T02:05:35.496Z,49.00
2023-12-21T02:08:02.197Z,49.10
2023-12-21T02:10:28.977Z,49.10
2023-12-21T02:12:55.726Z,49.20
2023-12-21T02:15:22.453Z,49.10
2023-12-21T02:17:49.204Z,48.90
2023-12-21T02:20:15.934Z,49.10
2023-12-21T02:22:42.672Z,49.10
2023-12-21T02:25:09.439Z,49.00
2023-12-21T02:27:36.160Z,49.10
2023-12-21T02:30:02.828Z,49.10
2023-12-21T02:32:29.751Z,49.00
2023-12-21T02:34:56.557Z,49.20
2023-12-21T02:37:23.336Z,49.30
2023-12-21T02:39:50.019Z,49.20
2023-12-21T02:42:16.706Z,49.20
2023-12-21T02:44:43.417Z,49.30
2023-12-21T02:47:10.105Z,49.30
2023-12-21T02:49:36.856Z,49.10
2023-12-21T02:52:03.579Z,49.10
2023-12-21T02:54:48.496Z,49.20
2023-12-21T02:57:33.725Z,49.20
2023-12-21T03:00:18.928Z,49.30
2023-12-21T03:03:04.376Z,49.30
2023-12-21T03:05:49.601Z,49.30
2023-12-21T03:08:35.315Z,49.30
2023-12-21T03:11:20.681Z,49.10
2023-12-21T03:14:05.975Z,49.00
2023-12-21T03:16:51.502Z,49.20
2023-12-21T03:19:36.857Z,49.10
2023-12-21T03:22:22.199Z,49.10
2023-12-21T03:25:07.523Z,49.30
2023-12-21T03:27:52.751Z,49.20
2023-12-21T03:30:38.254Z,49.30
2023-12-21T03:33:24.520Z,49.20
2023-12-21T03:36:09.830Z,49.40
2023-12-21T03:38:55.185Z,49.20
2023-12-21T03:41:40.422Z,49.30
2023-12-21T03:44:25.795Z,49.30
2023-12-21T03:47:11.109Z,49.20
2023-12-21T03:49:56.378Z,50.30
2023-12-21T03:52:41.678Z,49.20
2023-12-21T03:55:26.827Z,49.30
2023-12-21T03:58:11.957Z,49.30
2023-12-21T04:00:57.315Z,49.30
2023-12-21T04:03:42.689Z,49.30
2023-12-21T04:06:27.807Z,49.20
2023-12-21T04:08:54.509Z,49.20
2023-12-21T04:11:21.167Z,49.30
2023-12-21T04:13:48.056Z,49.40
2023-12-21T04:16:14.767Z,49.30
2023-12-21T04:18:41.786Z,49.40
2023-12-21T04:21:08.523Z,49.40
2023-12-21T04:23:35.406Z,49.30
2023-12-21T04:26:02.066Z,49.30
2023-12-21T04:28:28.751Z,49.20
2023-12-21T04:30:55.523Z,49.20
2023-12-21T04:33:22.270Z,49.30
2023-12-21T04:35:48.960Z,49.30
2023-12-21T04:38:15.623Z,49.30
2023-12-21T04:40:42.368Z,49.40
2023-12-21T04:43:09.175Z,49.20
2023-12-21T04:45:35.904Z,49.10
2023-12-21T04:48:02.695Z,49.30
2023-12-21T04:50:29.439Z,49.30
2023-12-21T04:52:56.090Z,49.30
2023-12-21T04:55:22.814Z,49.20
2023-12-21T04:57:49.476Z,49.20
2023-12-21T05:00:16.609Z,49.40
2023-12-21T05:02:43.356Z,49.40
2023-12-21T05:05:10.052Z,49.40
2023-12-21T05:07:36.790Z,49.40
2023-12-21T05:10:04.127Z,49.40
2023-12-21T05:12:30.850Z,49.30
2023-12-21T05:14:57.515Z,49.30
2023-12-21T05:17:24.244Z,49.40
2023-12-21T05:19:51.006Z,49.30
2023-12-21T05:22:17.734Z,49.50
2023-12-21T05:24:44.656Z,49.40
2023-12-21T05:27:11.327Z,49.40
2023-12-21T05:29:38.005Z,49.40
2023-12-21T05:32:04.658Z,49.50
2023-12-21T05:34:31.594Z,49.30
2023-12-21T05:36:58.344Z,49.30
2023-12-21T05:39:25.032Z,49.50
2023-12-21T05:41:51.686Z,49.40
2023-12-21T05:44:18.343Z,49.20
2023-12-21T05:46:45.061Z,49.20
2023-12-21T05:49:11.941Z,49.40
2023-12-21T05:51:38.686Z,49.40
2023-12-21T05:54:05.324Z,49.50
2023-12-21T05:56:32.068Z,49.50
2023-12-21T05:58:58.763Z,49.20
2023-12-21T06:01:25.511Z,49.30
2023-12-21T06:03:52.255Z,49.30
2023-12-21T06:06:19.015Z,49.40
2023-12-21T06:08:45.713Z,49.50
2023-12-21T06:11:12.416Z,49.50
2023-12-21T06:13:39.224Z,49.50
2023-12-21T06:16:09.876Z,49.30
2023-12-21T06:18:36.842Z,49.40
2023-12-21T06:21:03.735Z,50.40
2023-12-21T06:23:30.391Z,49.40
2023-12-21T06:25:57.315Z,49.40
2023-12-21T06:28:24.278Z,49.40
2023-12-21T06:30:51.217Z,49.40
2023-12-21T06:33:17.953Z,49.40
2023-12-21T06:35:44.978Z,49.50
2023-12-21T06:38:11.992Z,49.30
2023-12-21T06:40:38.905Z,49.30
2023-12-21T06:43:08.878Z,49.40
2023-12-21T06:45:35.558Z,50.60
2023-12-21T06:48:03.523Z,49.60
2023-12-21T06:50:33.220Z,49.30
2023-12-21T06:53:01.062Z,49.40
2023-12-21T06:55:27.802Z,49.60
2023-12-21T06:57:54.717Z,49.40
2023-12-21T07:00:21.457Z,49.60
2023-12-21T07:02:48.422Z,49.40
2023-12-21T07:05:15.251Z,49.20
2023-12-21T07:07:41.957Z,49.30
2023-12-21T07:10:08.650Z,49.50
2023-12-21T07:15:23.068Z,49.70
2023-12-21T07:17:49.738Z,49.60
2023-12-21T07:20:16.421Z,49.50
2023-12-21T07:22:43.112Z,49.50
2023-12-21T07:25:09.874Z,49.60
2023-12-21T07:27:36.598Z,49.70
2023-12-21T07:30:03.246Z,49.80
2023-12-21T07:32:29.932Z,49.90
2023-12-21T07:34:56.640Z,49.70
2023-12-21T07:37:23.345Z,49.80
2023-12-21T07:39:50.018Z,50.00
2023-12-21T07:42:16.669Z,49.70
2023-12-21T07:44:43.319Z,49.80
2023-12-21T07:47:09.971Z,49.90
2023-12-21T07:49:36.675Z,49.40
2023-12-21T07:52:03.515Z,49.90
2023-12-21T07:54:30.222Z,49.40
2023-12-21T07:56:56.884Z,49.40
2023-12-21T07:59:23.533Z,49.50
2023-12-21T08:01:50.267Z,49.90
2023-12-21T08:04:17.059Z,49.70
2023-12-21T08:06:43.739Z,49.90
2023-12-21T08:09:10.409Z,49.80
2023-12-21T08:11:37.062Z,49.80
2023-12-21T08:14:03.704Z,49.70
2023-12-21T08:16:30.424Z,49.50
2023-12-21T08:18:57.220Z,49.60
2023-12-21T08:21:24.040Z,49.80
2023-12-21T08:23:50.724Z,49.60
2023-12-21T08:26:17.373Z,49.60
2023-12-21T08:28:44.113Z,50.00
2023-12-21T08:31:11.411Z,49.80
2023-12-21T08:33:38.228Z,49.70
2023-12-21T08:36:04.914Z,49.50
2023-12-21T08:38:31.579Z,49.40
2023-12-21T08:40:58.287Z,49.70
2023-12-21T08:43:24.969Z,49.60
2023-12-21T08:45:51.661Z,49.80
2023-12-21T08:48:18.343Z,49.50
2023-12-21T08:50:45.080Z,49.60
2023-12-21T08:53:11.767Z,49.70
2023-12-21T08:55:38.495Z,49.70
2023-12-21T08:58:05.189Z,49.80
2023-12-21T09:00:31.899Z,49.70
2023-12-21T09:02:58.671Z,49.60
2023-12-21T09:05:25.899Z,49.40
2023-12-21T09:07:52.676Z,49.60
2023-12-21T09:10:19.526Z,49.60
2023-12-21T09:12:46.462Z,49.90
2023-12-21T09:15:13.645Z,49.80
2023-12-21T09:17:40.439Z,49.70
2023-12-21T09:20:07.160Z,49.80
2023-12-21T09:22:34.074Z,49.70
2023-12-21T09:25:00.876Z,49.70
2023-12-21T09:27:27.592Z,50.00
2023-12-21T09:29:54.239Z,49.60
2023-12-21T09:32:20.900Z,49.50
2023-12-21T09:34:47.614Z,49.80
2023-12-21T09:37:14.397Z,49.60
2023-12-21T09:39:41.141Z,49.80
2023-12-21T09:42:07.800Z,49.80
2023-12-21T09:44:34.458Z,49.50
2023-12-21T09:47:01.102Z,49.60
2023-12-21T09:49:27.801Z,49.80
2023-12-21T09:51:54.522Z,49.60
2023-12-21T09:54:21.173Z,50.00
2023-12-21T09:56:47.852Z,49.80
2023-12-21T09:59:14.528Z,49.70
2023-12-21T10:01:43.030Z,49.60
2023-12-21T10:04:11.126Z,49.80
2023-12-21T10:06:37.875Z,50.00
2023-12-21T10:09:04.604Z,49.90
2023-12-21T10:11:31.334Z,49.60
2023-12-21T10:13:58.008Z,49.90
2023-12-21T10:16:24.692Z,49.70
2023-12-21T10:18:51.369Z,49.70
2023-12-21T10:21:18.052Z,49.90
2023-12-21T10:23:44.727Z,49.60
2023-12-21T10:26:11.460Z,49.80
2023-12-21T10:28:38.185Z,49.60
2023-12-21T10:31:04.929Z,49.70
2023-12-21T10:33:31.718Z,49.80
2023-12-21T10:35:59.746Z,49.90
2023-12-21T10:38:26.388Z,50.00
2023-12-21T10:40:53.108Z,49.80
2023-12-21T10:43:19.822Z,49.80
2023-12-21T10:45:46.544Z,50.10
2023-12-21T10:48:13.299Z,50.00
2023-12-21T10:50:40.259Z,50.00
2023-12-21T10:53:07.166Z,50.10
2023-12-21T10:55:33.903Z,51.00
2023-12-21T10:58:00.667Z,50.00
2023-12-21T11:00:27.374Z,50.00
2023-12-21T11:02:54.194Z,49.90
2023-12-21T11:05:21.148Z,49.90
2023-12-21T11:07:47.927Z,49.80
2023-12-21T11:10:14.619Z,50.10
2023-12-21T11:12:41.318Z,49.90
2023-12-21T11:15:07.960Z,49.80
2023-12-21T11:17:34.627Z,49.90
2023-12-21T11:20:01.415Z,50.00
2023-12-21T11:22:28.132Z,50.00
2023-12-21T11:24:54.790Z,49.90
2023-12-21T11:27:21.471Z,49.70
2023-12-21T11:29:48.129Z,49.80
2023-12-21T11:32:14.825Z,49.70
2023-12-21T11:34:41.871Z,49.80
2023-12-21T11:37:08.652Z,50.00
2023-12-21T11:39:35.365Z,49.80
2023-12-21T11:42:02.025Z,50.00
2023-12-21T11:44:28.719Z,49.90
2023-12-21T11:46:55.607Z,49.80
2023-12-21T11:49:22.446Z,49.60
2023-12-21T11:51:49.118Z,49.90
2023-12-21T11:54:15.797Z,49.80
2023-12-21T11:56:42.452Z,49.70
2023-12-21T11:59:09.160Z,50.20
2023-12-21T12:01:36.035Z,49.90
2023-12-21T12:04:03.156Z,50.10
2023-12-21T12:06:29.900Z,50.00
2023-12-21T12:08:56.594Z,49.80
2023-12-21T12:11:23.294Z,50.10
2023-12-21T12:13:50.023Z,49.70
2023-12-21T12:16:16.820Z,49.90
2023-12-21T12:18:43.573Z,50.00
2023-12-21T12:21:10.308Z,50.10
2023-12-21T12:23:36.971Z,50.30
2023-12-21T12:26:03.773Z,50.10
2023-12-21T12:28:30.531Z,50.00
2023-12-21T12:30:57.427Z,50.00
2023-12-21T12:33:24.145Z,50.10
2023-12-21T12:35:50.906Z,50.20
2023-12-21T12:38:17.645Z,50.30
2023-12-21T12:40:44.439Z,50.40
2023-12-21T12:43:11.210Z,50.30
2023-12-21T12:45:37.879Z,50.20
2023-12-21T12:48:04.794Z,50.20
2023-12-21T12:50:31.472Z,50.10
2023-12-21T12:52:58.192Z,50.30
2023-12-21T12:55:25.012Z,50.40
2023-12-21T12:57:51.734Z,50.40
2023-12-21T13:00:18.408Z,50.30
2023-12-21T13:02:45.113Z,50.50
2023-12-21T13:05:12.103Z,50.70
2023-12-21T13:07:38.839Z,50.60
2023-12-21T13:10:09.765Z,50.40
2023-12-21T13:12:37.448Z,50.60
2023-12-21T13:15:04.098Z,50.60
2023-12-21T13:17:30.793Z,50.60
2023-12-21T13:19:57.556Z,50.50
2023-12-21T13:22:24.283Z,50.50
2023-12-21T13:24:50.993Z,50.30
2023-12-21T13:27:17.663Z,50.30
2023-12-21T13:29:44.335Z,50.70
2023-12-21T13:32:10.976Z,50.60
2023-12-21T13:34:37.855Z,50.50
2023-12-21T13:37:04.597Z,50.30
2023-12-21T13:39:31.330Z,50.70
2023-12-21T13:41:57.991Z,50.70
2023-12-21T13:44:29.311Z,50.30
2023-12-21T13:46:59.147Z,50.70
2023-12-21T13:49:26.009Z,50.60
2023-12-21T13:51:54.409Z,50.60
2023-12-21T13:54:22.581Z,50.40
2023-12-21T13:56:56.141Z,50.20
2023-12-21T13:59:30.202Z,50.50
2023-12-21T14:01:56.953Z,50.50
2023-12-21T14:04:23.717Z,50.30
2023-12-21T14:06:50.432Z,50.70
2023-12-21T14:09:17.139Z,50.80
2023-12-21T14:11:43.821Z,50.70
2023-12-21T14:14:10.710Z,50.70
2023-12-21T14:16:37.381Z,50.50
2023-12-21T14:19:04.390Z,50.70
2023-12-21T14:21:31.122Z,50.90
2023-12-21T14:23:57.770Z,51.20
2023-12-21T14:26:24.416Z,51.20
2023-12-21T14:28:56.660Z,50.90
2023-12-21T14:31:24.470Z,50.70
2023-12-21T14:33:51.283Z,50.80
2023-12-21T14:36:18.054Z,51.10
2023-12-21T14:38:44.806Z,51.30
2023-12-21T14:41:11.492Z,51.10
2023-12-21T14:43:38.201Z,50.90
2023-12-21T14:46:04.981Z,51.30
2023-12-21T14:48:32.082Z,51.30
2023-12-21T14:50:58.839Z,52.20
2023-12-21T14:53:25.509Z,51.60
2023-12-21T14:55:52.292Z,50.80
2023-12-21T14:58:19.166Z,51.00
2023-12-21T15:00:46.110Z,51.10
2023-12-21T15:03:12.935Z,50.90
2023-12-21T15:05:39.910Z,51.20
2023-12-21T15:08:08.741Z,51.30
2023-12-21T15:10:36.466Z,51.10
2023-12-21T15:13:03.130Z,51.00
2023-12-21T15:15:29.782Z,51.10
2023-12-21T15:17:56.615Z,50.90
2023-12-21T15:20:23.730Z,51.30
2023-12-21T15:22:50.477Z,51.20
2023-12-21T15:25:17.185Z,50.70
2023-12-21T15:27:43.891Z,51.00
2023-12-21T15:30:10.551Z,50.70
2023-12-21T15:32:37.231Z,50.90
2023-12-21T15:35:04.038Z,51.00
2023-12-21T15:37:31.040Z,50.90
2023-12-21T15:39:57.748Z,50.70
2023-12-21T15:42:24.413Z,51.00
2023-12-21T15:44:51.080Z,50.60
2023-12-21T15:47:17.748Z,50.70
2023-12-21T15:49:44.425Z,50.80
2023-12-21T15:52:11.183Z,51.00
2023-12-21T15:54:38.094Z,50.40
2023-12-21T15:57:04.770Z,50.90
2023-12-21T15:59:31.428Z,50.70
2023-12-21T16:01:58.145Z,50.90
2023-12-21T16:04:24.883Z,50.60
2023-12-21T16:06:51.577Z,50.60
2023-12-21T16:09:18.259Z,50.70
2023-12-21T16:11:45.174Z,50.60
2023-12-21T16:14:11.828Z,50.80
2023-12-21T16:16:38.511Z,50.70
2023-12-21T16:19:05.270Z,50.70
2023-12-21T16:21:31.946Z,50.80
2023-12-21T16:23:58.648Z,50.80
2023-12-21T16:26:25.285Z,50.50
2023-12-21T16:28:52.223Z,50.70
2023-12-21T16:31:18.958Z,50.90
2023-12-21T16:33:45.753Z,50.90
2023-12-21T16:36:12.450Z,50.80
2023-12-21T16:38:39.096Z,50.60
2023-12-21T16:41:05.746Z,50.60
2023-12-21T16:43:32.427Z,50.80
2023-12-21T16:45:59.316Z,50.90
2023-12-21T16:48:26.102Z,50.70
2023-12-21T16:50:52.828Z,50.80
2023-12-21T16:53:19.491Z,50.60
2023-12-21T16:55:46.196Z,50.90
2023-12-21T16:58:12.943Z,50.60
2023-12-21T17:00:39.608Z,50.50
2023-12-21T17:03:06.320Z,50.80
2023-12-21T17:05:33.350Z,50.70
2023-12-21T17:08:00.435Z,50.70
2023-12-21T17:10:27.153Z,50.70
2023-12-21T17:12:53.824Z,50.70
2023-12-21T17:15:20.475Z,50.70
2023-12-21T17:17:47.329Z,50.80
2023-12-21T17:20:14.525Z,50.90
2023-12-21T17:22:41.220Z,50.80
2023-12-21T17:25:08.018Z,50.80
2023-12-21T17:27:34.713Z,50.80
2023-12-21T17:30:01.409Z,50.90
2023-12-21T17:32:28.090Z,50.60
2023-12-21T17:34:54.807Z,50.80
2023-12-21T17:37:21.549Z,50.80
2023-12-21T17:39:48.225Z,50.50
2023-12-21T17:42:15.154Z,50.70
2023-12-21T17:44:41.822Z,50.60
2023-12-21T17:47:08.473Z,50.90
2023-12-21T17:49:35.405Z,50.90
2023-12-21T17:52:02.249Z,50.70
2023-12-21T17:54:28.916Z,50.60
2023-12-21T17:56:55.784Z,50.70
2023-12-21T17:59:22.511Z,50.80
2023-12-21T18:01:49.507Z,50.70
2023-12-21T18:04:16.316Z,50.80
2023-12-21T18:06:43.025Z,50.90
2023-12-21T18:09:09.684Z,50.90
2023-12-21T18:11:36.342Z,51.10
2023-12-21T18:14:02.999Z,50.80
2023-12-21T18:16:29.682Z,50.60
2023-12-21T18:18:56.643Z,50.70
2023-12-21T18:21:23.318Z,50.80
2023-12-21T18:23:50.044Z,50.60
2023-12-21T18:26:16.708Z,51.10
2023-12-21T18:28:43.482Z,50.80
2023-12-21T18:31:10.218Z,50.60
2023-12-21T18:33:36.917Z,50.90
2023-12-21T18:36:03.580Z,50.70
2023-12-21T18:38:30.239Z,50.80
2023-12-21T18:40:57.113Z,50.70
2023-12-21T18:43:23.808Z,50.60
2023-12-21T18:45:50.472Z,50.90
2023-12-21T18:48:17.223Z,50.60
2023-12-21T18:50:43.900Z,50.80
2023-12-21T18:53:11.348Z,50.80
2023-12-21T18:55:38.038Z,50.60
2023-12-21T18:58:04.746Z,50.80
2023-12-21T19:00:31.406Z,50.70
2023-12-21T19:02:58.070Z,50.70
2023-12-21T19:05:24.886Z,50.60
2023-12-21T19:07:51.895Z,50.70
2023-12-21T19:10:19.036Z,50.70
2023-12-21T19:12:45.721Z,50.70
2023-12-21T19:15:12.711Z,50.90
2023-12-21T19:17:39.438Z,50.60
2023-12-21T19:20:06.252Z,51.00
2023-12-21T19:22:33.000Z,50.80
2023-12-21T19:24:59.697Z,50.70
2023-12-21T19:27:26.574Z,50.60
2023-12-21T19:29:53.239Z,50.70
2023-12-21T19:32:20.024Z,50.90
2023-12-21T19:34:46.732Z,50.60
2023-12-21T19:37:13.530Z,50.80
2023-12-21T19:39:40.254Z,51.10
2023-12-21T19:42:06.893Z,50.70
2023-12-21T19:44:36.881Z,50.90
2023-12-21T19:47:05.194Z,50.70
2023-12-21T19:49:31.939Z,50.90
2023-12-21T19:51:58.869Z,51.10
2023-12-21T19:54:25.510Z,50.90
2023-12-21T19:56:52.160Z,50.80
2023-12-21T19:59:18.832Z,50.70
2023-12-21T20:01:45.546Z,50.70
2023-12-21T20:04:12.334Z,50.70
2023-12-21T20:06:39.153Z,50.80
2023-12-21T20:09:05.813Z,50.60
2023-12-21T20:11:32.515Z,50.70
2023-12-21T20:13:59.543Z,50.60
2023-12-21T20:16:26.270Z,50.70
2023-12-21T20:18:52.989Z,50.90
2023-12-21T20:21:19.682Z,50.60
2023-12-21T20:23:46.361Z,50.70
2023-12-21T20:26:13.082Z,50.90
2023-12-21T20:28:39.793Z,50.70
2023-12-21T20:31:06.467Z,50.60
2023-12-21T20:33:33.266Z,50.90
2023-12-21T20:36:00.233Z,50.60
2023-12-21T20:38:28.968Z,51.00
2023-12-21T20:40:55.861Z,50.80
2023-12-21T20:43:22.591Z,50.60
2023-12-21T20:45:49.259Z,50.80
2023-12-21T20:48:15.962Z,50.70
2023-12-21T20:50:42.695Z,50.50
2023-12-21T20:53:09.759Z,50.60
2023-12-21T20:55:36.524Z,50.70
2023-12-21T20:58:03.218Z,50.60
2023-12-21T21:00:29.878Z,51.10
2023-12-21T21:02:56.524Z,50.80
2023-12-21T21:05:23.209Z,50.80
2023-12-21T21:07:50.222Z,50.80
2023-12-21T21:10:17.351Z,50.90
2023-12-21T21:12:44.027Z,51.10
2023-12-21T21:15:11.156Z,50.80
2023-12-21T21:17:37.997Z,50.80
2023-12-21T21:20:04.899Z,50.80
2023-12-21T21:22:31.671Z,50.70
2023-12-21T21:24:58.324Z,51.00
2023-12-21T21:27:25.213Z,51.00
2023-12-21T21:29:51.872Z,50.80
2023-12-21T21:32:18.534Z,50.80
2023-12-21T21:34:45.239Z,50.50
2023-12-21T21:37:11.924Z,50.80
2023-12-21T21:39:40.047Z,51.20
2023-12-21T21:42:07.234Z,50.80
2023-12-21T21:44:34.108Z,50.80
2023-12-21T21:47:00.842Z,51.00
2023-12-21T21:49:27.592Z,51.00
2023-12-21T21:51:54.320Z,51.00
2023-12-21T21:54:20.975Z,50.90
2023-12-21T21:56:47.636Z,50.80
2023-12-21T21:59:14.281Z,51.20
2023-12-21T22:01:41.195Z,51.80
2023-12-21T22:04:10.213Z,51.10
2023-12-21T22:06:37.439Z,50.90
2023-12-21T22:09:04.121Z,50.80
2023-12-21T22:11:30.777Z,50.80
2023-12-21T22:13:57.471Z,50.60
2023-12-21T22:16:24.161Z,51.10
2023-12-21T22:18:51.092Z,51.00
2023-12-21T22:21:17.815Z,50.80
2023-12-21T22:23:44.486Z,50.60
2023-12-21T22:26:11.141Z,51.00
2023-12-21T22:28:37.885Z,51.20
2023-12-21T22:31:04.566Z,51.00
2023-12-21T22:33:31.316Z,51.20
2023-12-21T22:35:58.251Z,51.00
2023-12-21T22:38:25.008Z,50.80
2023-12-21T22:40:51.849Z,50.80
2023-12-21T22:43:29.820Z,51.00
2023-12-21T22:46:05.147Z,50.70
2023-12-21T22:48:31.920Z,50.60
2023-12-21T22:50:58.631Z,50.60
2023-12-21T22:53:25.509Z,50.70
2023-12-21T22:55:52.286Z,51.00
2023-12-21T22:58:19.034Z,50.80
2023-12-21T23:00:45.740Z,50.80
2023-12-21T23:03:12.450Z,50.80
2023-12-21T23:05:39.243Z,50.70
2023-12-21T23:08:05.918Z,51.00
2023-12-21T23:10:32.837Z,50.90
2023-12-21T23:12:59.508Z,51.00
2023-12-21T23:15:26.187Z,51.00
2023-12-21T23:17:52.909Z,50.60
2023-12-21T23:20:19.651Z,50.90
2023-12-21T23:22:46.660Z,50.90
2023-12-21T23:25:13.552Z,51.20
2023-12-21T23:27:40.475Z,50.70
2023-12-21T23:30:07.167Z,51.00
2023-12-21T23:32:33.944Z,51.40
2023-12-21T23:35:09.345Z,50.90
2023-12-21T23:37:43.476Z,51.30
2023-12-21T23:40:10.856Z,51.10
2023-12-21T23:42:37.674Z,51.10
2023-12-21T23:45:04.333Z,51.40
2023-12-21T23:47:31.163Z,50.80
2023-12-21T23:49:58.312Z,51.20
2023-12-21T23:52:25.061Z,51.00
2023-12-21T23:54:51.725Z,51.00
2023-12-21T23:57:18.371Z,51.00
2023-12-21T23:59:45.032Z,51.00
